sensor_id;sensor_type;location;lat;lon;timestamp;P1;P2;P0
79038;PMS5003;68436;55.068;73.284;2024-02-04T00:02:16;42.33;31.00;18.00
79038;PMS5003;68436;55.068;73.284;2024-02-04T00:04:42;44.75;32.00;17.50
79038;PMS5003;68436;55.068;73.284;2024-02-04T00:07:16;38.50;28.50;16.00
79038;PMS5003;68436;55.068;73.284;2024-02-04T00:09:42;49.25;36.50;20.75
79038;PMS5003;68436;55.068;73.284;2024-02-04T00:12:16;48.00;38.00;22.00
79038;PMS5003;68436;55.068;73.284;2024-02-04T00:14:42;48.00;35.75;21.00
79038;PMS5003;68436;55.068;73.284;2024-02-04T00:17:16;47.00;34.33;19.33
79038;PMS5003;68436;55.068;73.284;2024-02-04T00:19:42;41.75;33.50;19.25
79038;PMS5003;68436;55.068;73.284;2024-02-04T00:22:16;67.33;50.67;30.33
79038;PMS5003;68436;55.068;73.284;2024-02-04T00:24:44;46.25;35.00;20.75
79038;PMS5003;68436;55.068;73.284;2024-02-04T00:27:16;46.00;35.00;20.00
79038;PMS5003;68436;55.068;73.284;2024-02-04T00:29:42;48.50;37.25;22.00
79038;PMS5003;68436;55.068;73.284;2024-02-04T00:32:16;56.00;42.00;24.00
79038;PMS5003;68436;55.068;73.284;2024-02-04T00:34:42;55.25;41.25;24.00
79038;PMS5003;68436;55.068;73.284;2024-02-04T00:37:16;51.00;38.33;24.00
79038;PMS5003;68436;55.068;73.284;2024-02-04T00:39:42;53.25;40.25;24.00
79038;PMS5003;68436;55.068;73.284;2024-02-04T00:42:16;43.00;33.00;20.00
79038;PMS5003;68436;55.068;73.284;2024-02-04T00:44:42;55.50;42.75;25.75
79038;PMS5003;68436;55.068;73.284;2024-02-04T00:47:16;58.33;43.33;27.00
79038;PMS5003;68436;55.068;73.284;2024-02-04T00:49:42;48.75;36.25;22.00
79038;PMS5003;68436;55.068;73.284;2024-02-04T00:52:27;53.67;40.00;24.00
79038;PMS5003;68436;55.068;73.284;2024-02-04T00:54:53;58.50;43.00;26.00
79038;PMS5003;68436;55.068;73.284;2024-02-04T01:00:04;42.50;33.00;20.25
79038;PMS5003;68436;55.068;73.284;2024-02-04T01:02:32;45.00;33.00;20.33
79038;PMS5003;68436;55.068;73.284;2024-02-04T01:04:58;45.00;35.25;22.00
79038;PMS5003;68436;55.068;73.284;2024-02-04T01:07:24;41.50;32.00;19.00
79038;PMS5003;68436;55.068;73.284;2024-02-04T01:10:10;49.00;38.50;22.75
79038;PMS5003;68436;55.068;73.284;2024-02-04T01:12:36;44.00;33.67;18.00
79038;PMS5003;68436;55.068;73.284;2024-02-04T01:15:03;55.00;43.00;27.00
79038;PMS5003;68436;55.068;73.284;2024-02-04T01:17:31;43.75;34.25;20.00
79038;PMS5003;68436;55.068;73.284;2024-02-04T01:19:58;56.25;40.75;24.00
79038;PMS5003;68436;55.068;73.284;2024-02-04T01:22:24;42.33;31.00;19.00
79038;PMS5003;68436;55.068;73.284;2024-02-04T01:24:52;60.00;45.50;27.00
79038;PMS5003;68436;55.068;73.284;2024-02-04T01:27:19;63.00;47.00;26.50
79038;PMS5003;68436;55.068;73.284;2024-02-04T01:29:45;64.00;47.00;28.00
79038;PMS5003;68436;55.068;73.284;2024-02-04T01:32:16;57.50;42.00;23.50
79038;PMS5003;68436;55.068;73.284;2024-02-04T01:34:42;41.25;31.00;17.50
79038;PMS5003;68436;55.068;73.284;2024-02-04T01:37:16;48.67;37.00;20.33
79038;PMS5003;68436;55.068;73.284;2024-02-04T01:39:42;55.75;40.00;24.00
79038;PMS5003;68436;55.068;73.284;2024-02-04T01:42:16;65.00;49.00;28.50
79038;PMS5003;68436;55.068;73.284;2024-02-04T01:44:42;61.50;45.75;26.00
79038;PMS5003;68436;55.068;73.284;2024-02-04T01:47:16;47.50;36.00;20.50
79038;PMS5003;68436;55.068;73.284;2024-02-04T01:49:43;57.25;43.25;24.00
79038;PMS5003;68436;55.068;73.284;2024-02-04T01:52:16;47.50;37.00;22.00
79038;PMS5003;68436;55.068;73.284;2024-02-04T01:54:43;51.75;37.75;22.25
79038;PMS5003;68436;55.068;73.284;2024-02-04T01:57:16;42.00;32.00;20.00
79038;PMS5003;68436;55.068;73.284;2024-02-04T01:59:42;45.75;35.25;22.00
79038;PMS5003;68436;55.068;73.284;2024-02-04T02:02:16;46.00;34.00;19.00
79038;PMS5003;68436;55.068;73.284;2024-02-04T02:04:42;44.00;33.75;19.00
79038;PMS5003;68436;55.068;73.284;2024-02-04T02:07:16;41.00;31.00;18.00
79038;PMS5003;68436;55.068;73.284;2024-02-04T02:09:44;40.25;31.75;19.50
79038;PMS5003;68436;55.068;73.284;2024-02-04T02:14:42;42.00;32.00;19.00
79038;PMS5003;68436;55.068;73.284;2024-02-04T02:17:16;44.00;33.00;19.00
79038;PMS5003;68436;55.068;73.284;2024-02-04T02:19:48;43.50;33.00;20.25
79038;PMS5003;68436;55.068;73.284;2024-02-04T02:22:28;40.00;32.00;19.00
79038;PMS5003;68436;55.068;73.284;2024-02-04T02:24:56;45.50;35.00;20.75
79038;PMS5003;68436;55.068;73.284;2024-02-04T02:27:23;49.00;37.00;21.75
79038;PMS5003;68436;55.068;73.284;2024-02-04T02:29:49;48.00;36.50;21.25
79038;PMS5003;68436;55.068;73.284;2024-02-04T02:32:16;34.00;28.00;17.00
79038;PMS5003;68436;55.068;73.284;2024-02-04T02:34:59;48.00;34.50;20.25
79038;PMS5003;68436;55.068;73.284;2024-02-04T02:40:23;46.50;34.25;20.75
79038;PMS5003;68436;55.068;73.284;2024-02-04T02:42:52;42.67;32.00;20.00
79038;PMS5003;68436;55.068;73.284;2024-02-04T02:45:22;44.50;33.25;19.50
79038;PMS5003;68436;55.068;73.284;2024-02-04T02:47:51;45.00;34.67;21.33
79038;PMS5003;68436;55.068;73.284;2024-02-04T02:50:17;61.00;43.75;25.25
79038;PMS5003;68436;55.068;73.284;2024-02-04T02:52:44;49.33;38.00;23.00
79038;PMS5003;68436;55.068;73.284;2024-02-04T02:55:10;41.75;32.75;19.50
79038;PMS5003;68436;55.068;73.284;2024-02-04T02:57:36;48.00;36.67;21.67
79038;PMS5003;68436;55.068;73.284;2024-02-04T03:00:03;51.75;39.00;22.50
79038;PMS5003;68436;55.068;73.284;2024-02-04T03:02:31;55.00;43.00;25.67
79038;PMS5003;68436;55.068;73.284;2024-02-04T03:05:05;58.75;45.50;27.50
79038;PMS5003;68436;55.068;73.284;2024-02-04T03:07:44;65.00;49.00;30.00
79038;PMS5003;68436;55.068;73.284;2024-02-04T03:10:11;54.00;42.00;25.00
79038;PMS5003;68436;55.068;73.284;2024-02-04T03:12:37;54.67;41.67;25.33
79038;PMS5003;68436;55.068;73.284;2024-02-04T03:15:03;48.50;38.50;23.25
79038;PMS5003;68436;55.068;73.284;2024-02-04T03:17:30;43.33;33.00;18.00
79038;PMS5003;68436;55.068;73.284;2024-02-04T03:19:58;53.75;41.25;26.00
79038;PMS5003;68436;55.068;73.284;2024-02-04T03:22:26;54.00;41.00;25.00
79038;PMS5003;68436;55.068;73.284;2024-02-04T03:25:11;57.75;44.25;26.75
79038;PMS5003;68436;55.068;73.284;2024-02-04T03:27:57;59.33;45.00;27.33
79038;PMS5003;68436;55.068;73.284;2024-02-04T03:30:23;61.25;46.00;29.00
79038;PMS5003;68436;55.068;73.284;2024-02-04T03:32:49;66.75;51.00;32.00
79038;PMS5003;68436;55.068;73.284;2024-02-04T03:35:16;67.25;49.00;29.50
79038;PMS5003;68436;55.068;73.284;2024-02-04T03:37:43;65.33;49.67;31.00
79038;PMS5003;68436;55.068;73.284;2024-02-04T03:40:10;68.50;53.50;32.75
79038;PMS5003;68436;55.068;73.284;2024-02-04T03:42:36;77.33;58.33;36.00
79038;PMS5003;68436;55.068;73.284;2024-02-04T03:45:03;71.00;54.00;32.50
79038;PMS5003;68436;55.068;73.284;2024-02-04T03:47:29;77.33;61.67;34.33
79038;PMS5003;68436;55.068;73.284;2024-02-04T03:49:58;70.00;53.75;33.00
79038;PMS5003;68436;55.068;73.284;2024-02-04T03:52:25;77.67;61.00;36.67
79038;PMS5003;68436;55.068;73.284;2024-02-04T03:54:51;86.50;67.00;40.50
79038;PMS5003;68436;55.068;73.284;2024-02-04T03:57:17;78.00;63.00;38.00
79038;PMS5003;68436;55.068;73.284;2024-02-04T03:59:46;79.50;64.25;36.50
79038;PMS5003;68436;55.068;73.284;2024-02-04T04:02:16;80.00;65.00;38.50
79038;PMS5003;68436;55.068;73.284;2024-02-04T04:04:42;78.25;63.50;39.75
79038;PMS5003;68436;55.068;73.284;2024-02-04T04:10:00;77.00;60.50;36.50
79038;PMS5003;68436;55.068;73.284;2024-02-04T04:12:28;85.33;64.33;34.33
79038;PMS5003;68436;55.068;73.284;2024-02-04T04:14:54;78.25;64.00;38.25
79038;PMS5003;68436;55.068;73.284;2024-02-04T04:17:20;76.00;60.40;38.40
79038;PMS5003;68436;55.068;73.284;2024-02-04T04:19:46;83.50;68.00;41.00
79038;PMS5003;68436;55.068;73.284;2024-02-04T04:22:16;77.50;60.50;38.50
79038;PMS5003;68436;55.068;73.284;2024-02-04T04:24:42;83.00;66.25;38.75
79038;PMS5003;68436;55.068;73.284;2024-02-04T04:27:16;76.33;61.33;38.33
79038;PMS5003;68436;55.068;73.284;2024-02-04T04:29:42;79.50;64.00;39.25
79038;PMS5003;68436;55.068;73.284;2024-02-04T04:32:16;85.33;67.67;39.67
79038;PMS5003;68436;55.068;73.284;2024-02-04T04:34:42;88.25;70.25;42.00
79038;PMS5003;68436;55.068;73.284;2024-02-04T04:37:16;84.33;69.00;42.33
79038;PMS5003;68436;55.068;73.284;2024-02-04T04:39:42;81.50;65.50;39.00
79038;PMS5003;68436;55.068;73.284;2024-02-04T04:42:16;77.33;60.33;34.67
79038;PMS5003;68436;55.068;73.284;2024-02-04T04:44:42;67.00;52.00;33.00
79038;PMS5003;68436;55.068;73.284;2024-02-04T04:47:16;52.67;41.00;25.67
79038;PMS5003;68436;55.068;73.284;2024-02-04T04:49:43;53.50;42.00;26.50
79038;PMS5003;68436;55.068;73.284;2024-02-04T04:52:16;57.50;44.50;27.50
79038;PMS5003;68436;55.068;73.284;2024-02-04T04:54:42;55.00;42.50;26.50
79038;PMS5003;68436;55.068;73.284;2024-02-04T04:57:16;64.00;48.00;28.00
79038;PMS5003;68436;55.068;73.284;2024-02-04T04:59:45;63.00;48.00;29.00
79038;PMS5003;68436;55.068;73.284;2024-02-04T05:02:16;63.00;45.00;27.00
79038;PMS5003;68436;55.068;73.284;2024-02-04T05:04:42;60.50;46.25;28.00
79038;PMS5003;68436;55.068;73.284;2024-02-04T05:07:15;61.00;47.00;29.00
79038;PMS5003;68436;55.068;73.284;2024-02-04T05:09:42;61.00;47.00;28.00
79038;PMS5003;68436;55.068;73.284;2024-02-04T05:12:16;60.00;45.33;27.33
79038;PMS5003;68436;55.068;73.284;2024-02-04T05:14:42;58.50;43.75;27.00
79038;PMS5003;68436;55.068;73.284;2024-02-04T05:17:15;66.00;48.67;29.00
79038;PMS5003;68436;55.068;73.284;2024-02-04T05:19:44;62.50;46.50;28.75
79038;PMS5003;68436;55.068;73.284;2024-02-04T05:22:16;59.00;46.00;28.00
79038;PMS5003;68436;55.068;73.284;2024-02-04T05:24:42;64.75;47.50;28.75
79038;PMS5003;68436;55.068;73.284;2024-02-04T05:27:15;57.67;45.00;27.67
79038;PMS5003;68436;55.068;73.284;2024-02-04T05:29:42;57.50;44.25;27.00
79038;PMS5003;68436;55.068;73.284;2024-02-04T05:32:15;55.00;42.33;26.00
79038;PMS5003;68436;55.068;73.284;2024-02-04T05:34:42;55.00;41.50;26.00
79038;PMS5003;68436;55.068;73.284;2024-02-04T05:37:15;58.50;44.00;26.50
79038;PMS5003;68436;55.068;73.284;2024-02-04T05:39:42;60.00;45.00;27.50
79038;PMS5003;68436;55.068;73.284;2024-02-04T05:42:15;63.00;48.00;30.00
79038;PMS5003;68436;55.068;73.284;2024-02-04T05:44:42;61.25;44.50;28.00
79038;PMS5003;68436;55.068;73.284;2024-02-04T05:47:15;63.33;48.33;30.00
79038;PMS5003;68436;55.068;73.284;2024-02-04T05:49:42;62.50;48.50;29.75
79038;PMS5003;68436;55.068;73.284;2024-02-04T05:52:15;63.67;47.33;28.33
79038;PMS5003;68436;55.068;73.284;2024-02-04T05:54:43;62.50;48.00;30.00
79038;PMS5003;68436;55.068;73.284;2024-02-04T05:57:15;49.00;38.00;24.00
79038;PMS5003;68436;55.068;73.284;2024-02-04T05:59:42;63.00;48.00;29.00
79038;PMS5003;68436;55.068;73.284;2024-02-04T06:02:15;46.33;36.00;23.00
79038;PMS5003;68436;55.068;73.284;2024-02-04T06:04:42;59.00;45.00;27.00
79038;PMS5003;68436;55.068;73.284;2024-02-04T06:07:15;57.67;43.00;26.67
79038;PMS5003;68436;55.068;73.284;2024-02-04T06:09:42;45.75;35.25;21.75
79038;PMS5003;68436;55.068;73.284;2024-02-04T06:12:15;52.00;40.00;25.00
79038;PMS5003;68436;55.068;73.284;2024-02-04T06:14:42;53.00;40.25;24.25
79038;PMS5003;68436;55.068;73.284;2024-02-04T06:17:15;35.00;28.00;17.00
79038;PMS5003;68436;55.068;73.284;2024-02-04T06:19:42;51.00;40.00;25.50
79038;PMS5003;68436;55.068;73.284;2024-02-04T06:22:15;53.00;40.67;24.00
79038;PMS5003;68436;55.068;73.284;2024-02-04T06:24:42;24.00;20.50;11.25
79038;PMS5003;68436;55.068;73.284;2024-02-04T06:27:15;24.00;18.00;10.00
79038;PMS5003;68436;55.068;73.284;2024-02-04T06:29:42;30.50;24.50;14.25
79038;PMS5003;68436;55.068;73.284;2024-02-04T06:32:16;37.00;28.00;16.00
79038;PMS5003;68436;55.068;73.284;2024-02-04T06:34:43;33.25;25.75;14.50
79038;PMS5003;68436;55.068;73.284;2024-02-04T06:37:15;32.00;25.00;15.00
79038;PMS5003;68436;55.068;73.284;2024-02-04T06:39:43;42.25;32.25;19.25
79038;PMS5003;68436;55.068;73.284;2024-02-04T06:42:15;31.50;25.00;14.50
79038;PMS5003;68436;55.068;73.284;2024-02-04T06:44:44;35.00;27.00;16.00
79038;PMS5003;68436;55.068;73.284;2024-02-04T06:47:15;27.50;22.00;13.00
79038;PMS5003;68436;55.068;73.284;2024-02-04T06:49:44;32.25;24.25;13.00
79038;PMS5003;68436;55.068;73.284;2024-02-04T06:52:15;39.00;30.00;17.00
79038;PMS5003;68436;55.068;73.284;2024-02-04T06:54:43;30.00;24.75;13.00
79038;PMS5003;68436;55.068;73.284;2024-02-04T06:57:15;28.00;19.00;9.00
79038;PMS5003;68436;55.068;73.284;2024-02-04T06:59:43;50.50;37.25;23.25
79038;PMS5003;68436;55.068;73.284;2024-02-04T07:02:15;48.00;35.50;22.00
79038;PMS5003;68436;55.068;73.284;2024-02-04T07:04:42;57.00;44.50;27.25
79038;PMS5003;68436;55.068;73.284;2024-02-04T07:07:15;53.00;41.00;25.67
79038;PMS5003;68436;55.068;73.284;2024-02-04T07:12:27;40.00;32.00;19.00
79038;PMS5003;68436;55.068;73.284;2024-02-04T07:14:53;33.00;25.00;16.00
79038;PMS5003;68436;55.068;73.284;2024-02-04T07:17:19;21.50;16.25;9.50
79038;PMS5003;68436;55.068;73.284;2024-02-04T07:19:46;23.25;19.25;13.00
79038;PMS5003;68436;55.068;73.284;2024-02-04T07:22:15;35.00;27.50;17.50
79038;PMS5003;68436;55.068;73.284;2024-02-04T07:24:42;33.00;25.00;16.25
79038;PMS5003;68436;55.068;73.284;2024-02-04T07:27:15;24.67;20.67;12.33
79038;PMS5003;68436;55.068;73.284;2024-02-04T07:29:42;27.75;22.50;12.00
79038;PMS5003;68436;55.068;73.284;2024-02-04T07:32:15;28.50;24.00;15.00
79038;PMS5003;68436;55.068;73.284;2024-02-04T07:34:42;29.25;23.50;14.50
79038;PMS5003;68436;55.068;73.284;2024-02-04T07:37:15;27.67;22.33;12.33
79038;PMS5003;68436;55.068;73.284;2024-02-04T07:39:44;27.75;22.00;13.00
79038;PMS5003;68436;55.068;73.284;2024-02-04T07:42:15;29.00;23.00;15.00
79038;PMS5003;68436;55.068;73.284;2024-02-04T07:44:41;19.75;15.00;10.00
79038;PMS5003;68436;55.068;73.284;2024-02-04T07:47:15;28.00;23.67;14.00
79038;PMS5003;68436;55.068;73.284;2024-02-04T07:49:42;34.00;26.00;15.00
79038;PMS5003;68436;55.068;73.284;2024-02-04T07:52:16;35.00;28.00;19.00
79038;PMS5003;68436;55.068;73.284;2024-02-04T07:54:42;48.50;37.50;24.25
79038;PMS5003;68436;55.068;73.284;2024-02-04T07:57:15;66.50;50.00;29.00
79038;PMS5003;68436;55.068;73.284;2024-02-04T07:59:43;40.00;32.00;19.00
79038;PMS5003;68436;55.068;73.284;2024-02-04T08:02:15;29.00;24.00;15.00
79038;PMS5003;68436;55.068;73.284;2024-02-04T08:04:42;30.00;24.00;15.00
79038;PMS5003;68436;55.068;73.284;2024-02-04T08:07:15;35.00;25.67;16.00
79038;PMS5003;68436;55.068;73.284;2024-02-04T08:09:43;34.00;25.50;14.50
79038;PMS5003;68436;55.068;73.284;2024-02-04T08:12:15;27.00;23.00;14.00
79038;PMS5003;68436;55.068;73.284;2024-02-04T08:14:42;23.25;20.00;13.00
79038;PMS5003;68436;55.068;73.284;2024-02-04T08:17:15;23.67;18.00;11.67
79038;PMS5003;68436;55.068;73.284;2024-02-04T08:20:00;39.00;29.00;20.00
79038;PMS5003;68436;55.068;73.284;2024-02-04T08:22:26;30.00;24.00;12.67
79038;PMS5003;68436;55.068;73.284;2024-02-04T08:24:52;17.75;14.75;8.75
79038;PMS5003;68436;55.068;73.284;2024-02-04T08:27:19;17.00;15.00;9.00
79038;PMS5003;68436;55.068;73.284;2024-02-04T08:29:45;38.00;29.00;17.00
79038;PMS5003;68436;55.068;73.284;2024-02-04T08:32:15;35.50;27.50;17.00
79038;PMS5003;68436;55.068;73.284;2024-02-04T08:35:01;32.00;26.00;15.00
79038;PMS5003;68436;55.068;73.284;2024-02-04T08:37:27;34.67;28.33;16.33
79038;PMS5003;68436;55.068;73.284;2024-02-04T08:39:54;38.00;30.00;19.00
79038;PMS5003;68436;55.068;73.284;2024-02-04T08:42:20;26.40;22.40;14.00
79038;PMS5003;68436;55.068;73.284;2024-02-04T08:44:46;40.25;32.00;19.50
79038;PMS5003;68436;55.068;73.284;2024-02-04T08:47:15;34.00;26.00;16.00
79038;PMS5003;68436;55.068;73.284;2024-02-04T08:49:43;41.00;31.75;19.00
79038;PMS5003;68436;55.068;73.284;2024-02-04T08:52:15;35.00;28.50;19.50
79038;PMS5003;68436;55.068;73.284;2024-02-04T08:54:42;32.75;25.50;16.00
79038;PMS5003;68436;55.068;73.284;2024-02-04T08:57:15;32.67;25.67;14.67
79038;PMS5003;68436;55.068;73.284;2024-02-04T08:59:42;30.25;24.00;14.75
79038;PMS5003;68436;55.068;73.284;2024-02-04T09:02:15;23.00;19.00;12.00
79038;PMS5003;68436;55.068;73.284;2024-02-04T09:04:42;24.00;19.00;11.00
79038;PMS5003;68436;55.068;73.284;2024-02-04T09:07:15;36.00;29.00;17.00
79038;PMS5003;68436;55.068;73.284;2024-02-04T09:09:42;33.75;26.00;14.50
79038;PMS5003;68436;55.068;73.284;2024-02-04T09:12:15;40.00;30.67;18.33
79038;PMS5003;68436;55.068;73.284;2024-02-04T09:14:41;37.25;30.00;18.50
79038;PMS5003;68436;55.068;73.284;2024-02-04T09:17:15;33.33;26.00;16.00
79038;PMS5003;68436;55.068;73.284;2024-02-04T09:19:41;34.75;27.75;16.00
79038;PMS5003;68436;55.068;73.284;2024-02-04T09:22:15;29.67;23.33;13.67
79038;PMS5003;68436;55.068;73.284;2024-02-04T09:24:42;37.00;28.00;17.00
79038;PMS5003;68436;55.068;73.284;2024-02-04T09:27:15;35.00;28.00;18.00
79038;PMS5003;68436;55.068;73.284;2024-02-04T09:29:41;25.75;20.75;13.25
79038;PMS5003;68436;55.068;73.284;2024-02-04T09:32:15;28.00;24.00;13.00
79038;PMS5003;68436;55.068;73.284;2024-02-04T09:34:42;20.50;15.75;9.50
79038;PMS5003;68436;55.068;73.284;2024-02-04T09:37:15;22.00;18.00;10.67
79038;PMS5003;68436;55.068;73.284;2024-02-04T09:39:42;28.00;24.00;16.00
79038;PMS5003;68436;55.068;73.284;2024-02-04T09:42:21;21.00;18.00;12.00
79038;PMS5003;68436;55.068;73.284;2024-02-04T09:44:49;16.25;14.00;8.00
79038;PMS5003;68436;55.068;73.284;2024-02-04T09:47:15;18.00;16.00;11.00
79038;PMS5003;68436;55.068;73.284;2024-02-04T09:49:42;20.00;18.00;11.00
79038;PMS5003;68436;55.068;73.284;2024-02-04T09:52:18;24.50;20.00;13.00
79038;PMS5003;68436;55.068;73.284;2024-02-04T09:54:48;17.00;15.00;10.00
79038;PMS5003;68436;55.068;73.284;2024-02-04T09:57:15;13.00;11.00;6.00
79038;PMS5003;68436;55.068;73.284;2024-02-04T09:59:45;20.25;16.50;10.00
79038;PMS5003;68436;55.068;73.284;2024-02-04T10:02:15;11.00;9.00;5.00
79038;PMS5003;68436;55.068;73.284;2024-02-04T10:04:41;13.75;11.75;7.00
79038;PMS5003;68436;55.068;73.284;2024-02-04T10:07:15;16.67;13.00;8.00
79038;PMS5003;68436;55.068;73.284;2024-02-04T10:09:44;17.00;13.00;7.00
79038;PMS5003;68436;55.068;73.284;2024-02-04T10:12:16;16.00;13.00;8.00
79038;PMS5003;68436;55.068;73.284;2024-02-04T10:14:42;18.00;15.00;8.00
79038;PMS5003;68436;55.068;73.284;2024-02-04T10:17:15;14.00;11.00;7.00
79038;PMS5003;68436;55.068;73.284;2024-02-04T10:19:42;21.00;17.00;11.00
79038;PMS5003;68436;55.068;73.284;2024-02-04T10:22:15;14.00;13.00;9.33
79038;PMS5003;68436;55.068;73.284;2024-02-04T10:24:43;14.75;12.00;8.00
79038;PMS5003;68436;55.068;73.284;2024-02-04T10:27:15;13.00;11.00;7.00
79038;PMS5003;68436;55.068;73.284;2024-02-04T10:29:42;12.00;10.00;6.00
79038;PMS5003;68436;55.068;73.284;2024-02-04T10:32:15;19.00;15.00;10.00
79038;PMS5003;68436;55.068;73.284;2024-02-04T10:37:32;34.00;27.00;18.00
79038;PMS5003;68436;55.068;73.284;2024-02-04T10:39:58;21.50;18.00;11.00
79038;PMS5003;68436;55.068;73.284;2024-02-04T10:42:26;43.50;33.25;21.00
79038;PMS5003;68436;55.068;73.284;2024-02-04T10:44:53;19.00;15.00;9.00
79038;PMS5003;68436;55.068;73.284;2024-02-04T10:47:24;19.67;16.33;9.00
79038;PMS5003;68436;55.068;73.284;2024-02-04T10:49:51;23.00;18.00;12.00
79038;PMS5003;68436;55.068;73.284;2024-02-04T10:52:19;10.50;9.00;6.00
79038;PMS5003;68436;55.068;73.284;2024-02-04T10:54:46;24.00;19.75;13.50
79038;PMS5003;68436;55.068;73.284;2024-02-04T10:57:17;76.00;57.50;31.00
79038;PMS5003;68436;55.068;73.284;2024-02-04T10:59:47;89.50;70.50;40.75
79038;PMS5003;68436;55.068;73.284;2024-02-04T11:02:15;13.50;11.00;7.00
79038;PMS5003;68436;55.068;73.284;2024-02-04T11:04:48;73.50;55.75;33.75
79038;PMS5003;68436;55.068;73.284;2024-02-04T11:07:15;51.50;40.50;26.50
79038;PMS5003;68436;55.068;73.284;2024-02-04T11:09:44;18.00;15.00;9.00
79038;PMS5003;68436;55.068;73.284;2024-02-04T11:12:16;19.50;16.00;8.00
79038;PMS5003;68436;55.068;73.284;2024-02-04T11:14:46;18.00;16.00;9.00
79038;PMS5003;68436;55.068;73.284;2024-02-04T11:20:06;11.50;10.50;6.50
79038;PMS5003;68436;55.068;73.284;2024-02-04T11:25:16;17.00;14.25;8.50
79038;PMS5003;68436;55.068;73.284;2024-02-04T11:27:45;19.00;15.00;9.00
79038;PMS5003;68436;55.068;73.284;2024-02-04T11:30:12;18.00;14.00;9.00
79038;PMS5003;68436;55.068;73.284;2024-02-04T11:32:41;26.25;21.00;13.50
79038;PMS5003;68436;55.068;73.284;2024-02-04T11:35:07;22.00;18.25;12.00
79038;PMS5003;68436;55.068;73.284;2024-02-04T11:37:35;29.00;24.33;16.00
79038;PMS5003;68436;55.068;73.284;2024-02-04T11:40:21;24.75;21.25;13.25
79038;PMS5003;68436;55.068;73.284;2024-02-04T11:43:12;24.00;21.00;13.00
79038;PMS5003;68436;55.068;73.284;2024-02-04T11:45:42;17.75;14.50;8.50
79038;PMS5003;68436;55.068;73.284;2024-02-04T11:48:11;16.75;13.25;8.75
79038;PMS5003;68436;55.068;73.284;2024-02-04T11:50:38;18.00;15.50;10.00
79038;PMS5003;68436;55.068;73.284;2024-02-04T11:53:07;28.67;24.00;17.00
79038;PMS5003;68436;55.068;73.284;2024-02-04T11:55:35;29.00;26.00;18.00
79038;PMS5003;68436;55.068;73.284;2024-02-04T11:58:04;23.25;19.00;12.00
79038;PMS5003;68436;55.068;73.284;2024-02-04T12:00:35;17.00;14.75;9.00
79038;PMS5003;68436;55.068;73.284;2024-02-04T12:03:04;29.67;24.33;16.00
79038;PMS5003;68436;55.068;73.284;2024-02-04T12:05:32;32.75;25.75;16.00
79038;PMS5003;68436;55.068;73.284;2024-02-04T12:08:03;26.00;22.67;14.67
79038;PMS5003;68436;55.068;73.284;2024-02-04T12:10:30;27.75;23.25;14.50
79038;PMS5003;68436;55.068;73.284;2024-02-04T12:13:00;27.00;22.00;15.00
79038;PMS5003;68436;55.068;73.284;2024-02-04T12:15:28;18.75;16.00;11.50
79038;PMS5003;68436;55.068;73.284;2024-02-04T12:17:54;34.75;28.00;18.00
79038;PMS5003;68436;55.068;73.284;2024-02-04T12:20:41;18.00;15.00;9.00
79038;PMS5003;68436;55.068;73.284;2024-02-04T12:23:27;33.00;27.00;18.00
79038;PMS5003;68436;55.068;73.284;2024-02-04T12:25:55;23.75;18.50;10.75
79038;PMS5003;68436;55.068;73.284;2024-02-04T12:28:22;29.00;22.33;12.67
79038;PMS5003;68436;55.068;73.284;2024-02-04T12:31:16;66.25;50.25;31.00
79038;PMS5003;68436;55.068;73.284;2024-02-04T12:33:49;33.33;26.33;16.00
79038;PMS5003;68436;55.068;73.284;2024-02-04T12:36:16;50.00;36.75;21.75
79038;PMS5003;68436;55.068;73.284;2024-02-04T12:38:59;54.00;42.00;26.00
79038;PMS5003;68436;55.068;73.284;2024-02-04T12:41:29;33.00;28.00;18.50
79038;PMS5003;68436;55.068;73.284;2024-02-04T12:43:56;22.25;19.75;13.00
79038;PMS5003;68436;55.068;73.284;2024-02-04T12:46:22;22.50;17.00;10.50
79038;PMS5003;68436;55.068;73.284;2024-02-04T12:48:55;23.00;19.33;11.00
79038;PMS5003;68436;55.068;73.284;2024-02-04T12:51:26;14.00;11.50;7.25
79038;PMS5003;68436;55.068;73.284;2024-02-04T12:56:40;10.75;9.75;6.25
79038;PMS5003;68436;55.068;73.284;2024-02-04T13:01:52;20.50;17.00;10.00
79038;PMS5003;68436;55.068;73.284;2024-02-04T13:04:40;37.25;30.00;18.00
79038;PMS5003;68436;55.068;73.284;2024-02-04T13:07:15;42.00;34.00;20.33
79038;PMS5003;68436;55.068;73.284;2024-02-04T13:09:45;34.50;28.00;18.00
79038;PMS5003;68436;55.068;73.284;2024-02-04T13:12:15;38.00;30.00;20.00
79038;PMS5003;68436;55.068;73.284;2024-02-04T13:14:53;13.50;11.50;8.50
79038;PMS5003;68436;55.068;73.284;2024-02-04T13:17:19;19.75;16.25;10.50
79038;PMS5003;68436;55.068;73.284;2024-02-04T13:19:46;28.75;24.75;15.25
79038;PMS5003;68436;55.068;73.284;2024-02-04T13:25:01;53.25;40.25;24.50
79038;PMS5003;68436;55.068;73.284;2024-02-04T13:27:28;54.67;40.67;24.67
79038;PMS5003;68436;55.068;73.284;2024-02-04T13:30:14;29.75;23.75;15.00
79038;PMS5003;68436;55.068;73.284;2024-02-04T13:32:41;29.50;24.00;15.00
79038;PMS5003;68436;55.068;73.284;2024-02-04T13:35:09;36.00;30.00;19.50
79038;PMS5003;68436;55.068;73.284;2024-02-04T13:37:39;25.00;21.00;12.67
79038;PMS5003;68436;55.068;73.284;2024-02-04T13:40:24;20.00;16.00;10.00
79038;PMS5003;68436;55.068;73.284;2024-02-04T13:42:51;23.00;19.33;13.00
79038;PMS5003;68436;55.068;73.284;2024-02-04T13:45:19;35.00;27.00;16.00
79038;PMS5003;68436;55.068;73.284;2024-02-04T13:47:45;23.33;19.67;13.00
79038;PMS5003;68436;55.068;73.284;2024-02-04T13:50:13;23.75;20.25;14.25
79038;PMS5003;68436;55.068;73.284;2024-02-04T13:52:41;24.00;19.33;11.67
79038;PMS5003;68436;55.068;73.284;2024-02-04T13:55:22;35.25;27.25;18.00
79038;PMS5003;68436;55.068;73.284;2024-02-04T13:58:08;25.67;22.67;15.00
79038;PMS5003;68436;55.068;73.284;2024-02-04T14:00:34;42.00;30.75;20.00
79038;PMS5003;68436;55.068;73.284;2024-02-04T14:03:01;31.33;24.00;16.00
79038;PMS5003;68436;55.068;73.284;2024-02-04T14:05:27;27.75;22.75;15.50
79038;PMS5003;68436;55.068;73.284;2024-02-04T14:07:53;29.00;22.00;13.50
79038;PMS5003;68436;55.068;73.284;2024-02-04T14:10:20;21.25;17.50;11.25
79038;PMS5003;68436;55.068;73.284;2024-02-04T14:12:46;22.25;17.25;10.25
79038;PMS5003;68436;55.068;73.284;2024-02-04T14:15:12;19.75;16.50;10.25
79038;PMS5003;68436;55.068;73.284;2024-02-04T14:17:38;12.67;11.00;7.33
79038;PMS5003;68436;55.068;73.284;2024-02-04T14:20:06;17.00;14.25;10.00
79038;PMS5003;68436;55.068;73.284;2024-02-04T14:22:32;17.75;15.00;9.50